sensor_id;sensor_type;location;lat;lon;timestamp;P1;durP1;ratioP1;P2;durP2;ratioP2
55672;SDS011;41554;45.366;20.400;2024-01-25T00:01:12;13.73;;;8.98;;
55672;SDS011;41554;45.366;20.400;2024-01-25T00:03:38;16.02;;;9.25;;
55672;SDS011;41554;45.366;20.400;2024-01-25T00:06:07;13.18;;;9.07;;
55672;SDS011;41554;45.366;20.400;2024-01-25T00:08:33;13.18;;;9.57;;
55672;SDS011;41554;45.366;20.400;2024-01-25T00:11:01;12.85;;;8.82;;
55672;SDS011;41554;45.366;20.400;2024-01-25T00:13:27;14.10;;;9.13;;
55672;SDS011;41554;45.366;20.400;2024-01-25T00:15:53;10.45;;;8.32;;
55672;SDS011;41554;45.366;20.400;2024-01-25T00:18:19;15.40;;;9.15;;
55672;SDS011;41554;45.366;20.400;2024-01-25T00:20:45;16.17;;;7.57;;
55672;SDS011;41554;45.366;20.400;2024-01-25T00:23:11;14.40;;;8.10;;
55672;SDS011;41554;45.366;20.400;2024-01-25T00:25:38;13.35;;;7.90;;
55672;SDS011;41554;45.366;20.400;2024-01-25T00:28:04;15.43;;;9.18;;
55672;SDS011;41554;45.366;20.400;2024-01-25T00:30:30;13.40;;;7.75;;
55672;SDS011;41554;45.366;20.400;2024-01-25T00:32:56;10.93;;;6.55;;
55672;SDS011;41554;45.366;20.400;2024-01-25T00:35:23;10.88;;;7.63;;
55672;SDS011;41554;45.366;20.400;2024-01-25T00:37:50;13.48;;;7.97;;
55672;SDS011;41554;45.366;20.400;2024-01-25T00:40:16;8.27;;;6.55;;
55672;SDS011;41554;45.366;20.400;2024-01-25T00:42:46;10.57;;;6.18;;
55672;SDS011;41554;45.366;20.400;2024-01-25T00:45:19;10.80;;;6.85;;
55672;SDS011;41554;45.366;20.400;2024-01-25T00:47:45;12.27;;;7.57;;
55672;SDS011;41554;45.366;20.400;2024-01-25T00:50:12;13.45;;;8.02;;
55672;SDS011;41554;45.366;20.400;2024-01-25T00:52:38;14.68;;;7.65;;
55672;SDS011;41554;45.366;20.400;2024-01-25T00:55:05;11.02;;;6.68;;
55672;SDS011;41554;45.366;20.400;2024-01-25T00:57:31;11.00;;;6.82;;
55672;SDS011;41554;45.366;20.400;2024-01-25T00:59:58;11.43;;;8.35;;
55672;SDS011;41554;45.366;20.400;2024-01-25T01:02:25;15.30;;;7.32;;
55672;SDS011;41554;45.366;20.400;2024-01-25T01:04:55;13.88;;;8.82;;
55672;SDS011;41554;45.366;20.400;2024-01-25T01:07:22;11.90;;;8.18;;
55672;SDS011;41554;45.366;20.400;2024-01-25T01:09:48;12.18;;;8.30;;
55672;SDS011;41554;45.366;20.400;2024-01-25T01:12:14;10.73;;;8.82;;
55672;SDS011;41554;45.366;20.400;2024-01-25T01:14:41;14.38;;;6.80;;
55672;SDS011;41554;45.366;20.400;2024-01-25T01:17:07;13.38;;;7.53;;
55672;SDS011;41554;45.366;20.400;2024-01-25T01:19:34;12.55;;;8.00;;
55672;SDS011;41554;45.366;20.400;2024-01-25T01:22:00;10.30;;;7.05;;
55672;SDS011;41554;45.366;20.400;2024-01-25T01:24:26;12.07;;;8.13;;
55672;SDS011;41554;45.366;20.400;2024-01-25T01:26:52;13.13;;;7.57;;
55672;SDS011;41554;45.366;20.400;2024-01-25T01:29:18;10.05;;;7.10;;
55672;SDS011;41554;45.366;20.400;2024-01-25T01:31:44;12.60;;;7.93;;
55672;SDS011;41554;45.366;20.400;2024-01-25T01:34:10;17.23;;;9.10;;
55672;SDS011;41554;45.366;20.400;2024-01-25T01:36:38;9.98;;;7.47;;
55672;SDS011;41554;45.366;20.400;2024-01-25T01:39:04;22.17;;;9.60;;
55672;SDS011;41554;45.366;20.400;2024-01-25T01:41:33;12.93;;;8.77;;
55672;SDS011;41554;45.366;20.400;2024-01-25T01:44:00;12.23;;;8.63;;
55672;SDS011;41554;45.366;20.400;2024-01-25T01:46:36;13.35;;;7.53;;
55672;SDS011;41554;45.366;20.400;2024-01-25T01:49:03;10.20;;;7.28;;
55672;SDS011;41554;45.366;20.400;2024-01-25T01:51:30;13.02;;;7.55;;
55672;SDS011;41554;45.366;20.400;2024-01-25T01:53:56;16.67;;;9.70;;
55672;SDS011;41554;45.366;20.400;2024-01-25T01:56:26;14.07;;;8.55;;
55672;SDS011;41554;45.366;20.400;2024-01-25T01:58:59;13.55;;;9.43;;
55672;SDS011;41554;45.366;20.400;2024-01-25T02:01:26;17.60;;;11.10;;
55672;SDS011;41554;45.366;20.400;2024-01-25T02:03:52;14.80;;;9.20;;
55672;SDS011;41554;45.366;20.400;2024-01-25T02:06:18;24.65;;;9.70;;
55672;SDS011;41554;45.366;20.400;2024-01-25T02:08:48;22.00;;;10.50;;
55672;SDS011;41554;45.366;20.400;2024-01-25T02:11:26;11.60;;;8.45;;
55672;SDS011;41554;45.366;20.400;2024-01-25T02:13:52;15.95;;;10.07;;
55672;SDS011;41554;45.366;20.400;2024-01-25T02:16:18;13.48;;;9.07;;
55672;SDS011;41554;45.366;20.400;2024-01-25T02:18:45;13.95;;;8.00;;
55672;SDS011;41554;45.366;20.400;2024-01-25T02:21:14;10.43;;;7.93;;
55672;SDS011;41554;45.366;20.400;2024-01-25T02:23:40;13.38;;;9.23;;
55672;SDS011;41554;45.366;20.400;2024-01-25T02:26:06;13.70;;;8.23;;
55672;SDS011;41554;45.366;20.400;2024-01-25T02:28:32;15.45;;;9.02;;
55672;SDS011;41554;45.366;20.400;2024-01-25T02:30:59;11.45;;;8.25;;
55672;SDS011;41554;45.366;20.400;2024-01-25T02:33:26;12.95;;;8.75;;
55672;SDS011;41554;45.366;20.400;2024-01-25T02:35:52;13.65;;;7.35;;
55672;SDS011;41554;45.366;20.400;2024-01-25T02:38:18;11.02;;;9.02;;
55672;SDS011;41554;45.366;20.400;2024-01-25T02:40:44;14.27;;;8.57;;
55672;SDS011;41554;45.366;20.400;2024-01-25T02:43:10;9.20;;;6.97;;
55672;SDS011;41554;45.366;20.400;2024-01-25T02:45:36;11.20;;;7.43;;
55672;SDS011;41554;45.366;20.400;2024-01-25T02:48:02;15.35;;;9.00;;
55672;SDS011;41554;45.366;20.400;2024-01-25T02:50:28;16.10;;;7.63;;
55672;SDS011;41554;45.366;20.400;2024-01-25T02:52:54;12.52;;;8.77;;
55672;SDS011;41554;45.366;20.400;2024-01-25T02:55:20;13.15;;;7.53;;
55672;SDS011;41554;45.366;20.400;2024-01-25T02:57:47;7.63;;;6.40;;
55672;SDS011;41554;45.366;20.400;2024-01-25T03:00:13;9.73;;;7.07;;
55672;SDS011;41554;45.366;20.400;2024-01-25T03:02:39;14.32;;;8.18;;
55672;SDS011;41554;45.366;20.400;2024-01-25T03:05:05;13.95;;;7.63;;
55672;SDS011;41554;45.366;20.400;2024-01-25T03:07:31;9.75;;;6.85;;
55672;SDS011;41554;45.366;20.400;2024-01-25T03:09:57;11.82;;;7.97;;
55672;SDS011;41554;45.366;20.400;2024-01-25T03:12:23;15.55;;;6.60;;
55672;SDS011;41554;45.366;20.400;2024-01-25T03:14:50;23.58;;;8.38;;
55672;SDS011;41554;45.366;20.400;2024-01-25T03:17:16;17.13;;;7.43;;
55672;SDS011;41554;45.366;20.400;2024-01-25T03:19:42;13.95;;;6.18;;
55672;SDS011;41554;45.366;20.400;2024-01-25T03:22:08;9.93;;;5.82;;
55672;SDS011;41554;45.366;20.400;2024-01-25T03:24:37;11.90;;;8.43;;
55672;SDS011;41554;45.366;20.400;2024-01-25T03:27:04;10.87;;;6.60;;
55672;SDS011;41554;45.366;20.400;2024-01-25T03:29:30;13.70;;;7.38;;
55672;SDS011;41554;45.366;20.400;2024-01-25T03:31:56;10.27;;;7.03;;
55672;SDS011;41554;45.366;20.400;2024-01-25T03:34:22;6.82;;;5.72;;
55672;SDS011;41554;45.366;20.400;2024-01-25T03:36:48;9.35;;;8.13;;
55672;SDS011;41554;45.366;20.400;2024-01-25T03:39:17;16.17;;;10.32;;
55672;SDS011;41554;45.366;20.400;2024-01-25T03:41:43;15.57;;;9.25;;
55672;SDS011;41554;45.366;20.400;2024-01-25T03:44:09;11.27;;;8.02;;
55672;SDS011;41554;45.366;20.400;2024-01-25T03:46:35;16.55;;;8.23;;
55672;SDS011;41554;45.366;20.400;2024-01-25T03:49:01;16.60;;;9.45;;
55672;SDS011;41554;45.366;20.400;2024-01-25T03:51:28;16.83;;;8.55;;
55672;SDS011;41554;45.366;20.400;2024-01-25T03:53:54;10.05;;;8.63;;
55672;SDS011;41554;45.366;20.400;2024-01-25T03:56:23;16.83;;;9.43;;
55672;SDS011;41554;45.366;20.400;2024-01-25T03:58:49;11.85;;;8.95;;
55672;SDS011;41554;45.366;20.400;2024-01-25T04:01:15;16.50;;;8.77;;
55672;SDS011;41554;45.366;20.400;2024-01-25T04:03:41;15.50;;;8.05;;
55672;SDS011;41554;45.366;20.400;2024-01-25T04:06:07;14.68;;;9.30;;
55672;SDS011;41554;45.366;20.400;2024-01-25T04:08:33;14.48;;;8.70;;
55672;SDS011;41554;45.366;20.400;2024-01-25T04:10:59;13.48;;;8.73;;
55672;SDS011;41554;45.366;20.400;2024-01-25T04:13:26;15.23;;;8.70;;
55672;SDS011;41554;45.366;20.400;2024-01-25T04:15:52;16.80;;;9.68;;
55672;SDS011;41554;45.366;20.400;2024-01-25T04:18:18;9.98;;;8.10;;
55672;SDS011;41554;45.366;20.400;2024-01-25T04:20:44;17.30;;;9.13;;
55672;SDS011;41554;45.366;20.400;2024-01-25T04:23:12;11.98;;;8.65;;
55672;SDS011;41554;45.366;20.400;2024-01-25T04:25:38;14.18;;;8.10;;
55672;SDS011;41554;45.366;20.400;2024-01-25T04:28:04;11.20;;;8.30;;
55672;SDS011;41554;45.366;20.400;2024-01-25T04:30:30;12.30;;;8.38;;
55672;SDS011;41554;45.366;20.400;2024-01-25T04:32:57;15.05;;;9.95;;
55672;SDS011;41554;45.366;20.400;2024-01-25T04:35:24;12.80;;;7.93;;
55672;SDS011;41554;45.366;20.400;2024-01-25T04:37:50;11.98;;;8.70;;
55672;SDS011;41554;45.366;20.400;2024-01-25T04:40:16;11.73;;;6.85;;
55672;SDS011;41554;45.366;20.400;2024-01-25T04:42:42;19.63;;;7.80;;
55672;SDS011;41554;45.366;20.400;2024-01-25T04:45:08;14.60;;;6.20;;
55672;SDS011;41554;45.366;20.400;2024-01-25T04:47:36;11.57;;;6.85;;
55672;SDS011;41554;45.366;20.400;2024-01-25T04:50:02;11.15;;;5.35;;
55672;SDS011;41554;45.366;20.400;2024-01-25T04:52:29;10.13;;;7.00;;
55672;SDS011;41554;45.366;20.400;2024-01-25T04:54:55;12.48;;;5.45;;
55672;SDS011;41554;45.366;20.400;2024-01-25T04:57:21;7.75;;;4.30;;
55672;SDS011;41554;45.366;20.400;2024-01-25T04:59:47;10.02;;;6.05;;
55672;SDS011;41554;45.366;20.400;2024-01-25T05:02:13;8.23;;;6.25;;
55672;SDS011;41554;45.366;20.400;2024-01-25T05:04:40;8.30;;;4.82;;
55672;SDS011;41554;45.366;20.400;2024-01-25T05:07:06;13.73;;;6.22;;
55672;SDS011;41554;45.366;20.400;2024-01-25T05:09:32;8.93;;;6.20;;
55672;SDS011;41554;45.366;20.400;2024-01-25T05:11:58;7.50;;;4.32;;
55672;SDS011;41554;45.366;20.400;2024-01-25T05:14:27;14.73;;;5.78;;
55672;SDS011;41554;45.366;20.400;2024-01-25T05:16:53;12.02;;;4.63;;
55672;SDS011;41554;45.366;20.400;2024-01-25T05:19:19;8.40;;;6.13;;
55672;SDS011;41554;45.366;20.400;2024-01-25T05:21:45;9.52;;;4.97;;
55672;SDS011;41554;45.366;20.400;2024-01-25T05:24:11;9.32;;;6.05;;
55672;SDS011;41554;45.366;20.400;2024-01-25T05:26:37;7.13;;;5.10;;
55672;SDS011;41554;45.366;20.400;2024-01-25T05:29:04;8.75;;;5.20;;
55672;SDS011;41554;45.366;20.400;2024-01-25T05:31:30;9.55;;;5.53;;
55672;SDS011;41554;45.366;20.400;2024-01-25T05:33:56;8.15;;;4.47;;
55672;SDS011;41554;45.366;20.400;2024-01-25T05:36:22;12.30;;;5.07;;
55672;SDS011;41554;45.366;20.400;2024-01-25T05:38:48;7.10;;;4.72;;
55672;SDS011;41554;45.366;20.400;2024-01-25T05:41:14;15.50;;;5.97;;
55672;SDS011;41554;45.366;20.400;2024-01-25T05:43:41;10.50;;;7.78;;
55672;SDS011;41554;45.366;20.400;2024-01-25T05:46:07;10.47;;;6.33;;
55672;SDS011;41554;45.366;20.400;2024-01-25T05:48:34;15.07;;;8.07;;
55672;SDS011;41554;45.366;20.400;2024-01-25T05:51:00;8.25;;;6.10;;
55672;SDS011;41554;45.366;20.400;2024-01-25T05:53:26;11.43;;;7.25;;
55672;SDS011;41554;45.366;20.400;2024-01-25T05:55:52;17.92;;;7.45;;
55672;SDS011;41554;45.366;20.400;2024-01-25T05:58:19;10.43;;;7.78;;
55672;SDS011;41554;45.366;20.400;2024-01-25T06:00:45;12.85;;;7.47;;
55672;SDS011;41554;45.366;20.400;2024-01-25T06:03:11;12.63;;;9.00;;
55672;SDS011;41554;45.366;20.400;2024-01-25T06:05:37;20.35;;;9.30;;
55672;SDS011;41554;45.366;20.400;2024-01-25T06:08:03;11.88;;;7.32;;
55672;SDS011;41554;45.366;20.400;2024-01-25T06:10:29;17.70;;;8.70;;
55672;SDS011;41554;45.366;20.400;2024-01-25T06:12:55;11.27;;;7.93;;
55672;SDS011;41554;45.366;20.400;2024-01-25T06:15:21;10.90;;;7.47;;
55672;SDS011;41554;45.366;20.400;2024-01-25T06:17:47;12.63;;;8.45;;
55672;SDS011;41554;45.366;20.400;2024-01-25T06:20:13;13.80;;;7.38;;
55672;SDS011;41554;45.366;20.400;2024-01-25T06:22:39;9.35;;;7.10;;
55672;SDS011;41554;45.366;20.400;2024-01-25T06:25:05;9.27;;;7.20;;
55672;SDS011;41554;45.366;20.400;2024-01-25T06:27:32;15.90;;;7.30;;
55672;SDS011;41554;45.366;20.400;2024-01-25T06:29:58;18.17;;;8.68;;
55672;SDS011;41554;45.366;20.400;2024-01-25T06:32:24;13.00;;;9.63;;
55672;SDS011;41554;45.366;20.400;2024-01-25T06:34:50;12.65;;;7.57;;
55672;SDS011;41554;45.366;20.400;2024-01-25T06:37:16;11.73;;;8.13;;
55672;SDS011;41554;45.366;20.400;2024-01-25T06:39:43;11.93;;;8.85;;
55672;SDS011;41554;45.366;20.400;2024-01-25T06:42:09;10.93;;;8.02;;
55672;SDS011;41554;45.366;20.400;2024-01-25T06:44:36;11.70;;;7.18;;
55672;SDS011;41554;45.366;20.400;2024-01-25T06:47:02;12.65;;;7.90;;
55672;SDS011;41554;45.366;20.400;2024-01-25T06:49:28;12.75;;;7.70;;
55672;SDS011;41554;45.366;20.400;2024-01-25T06:51:54;9.48;;;8.00;;
55672;SDS011;41554;45.366;20.400;2024-01-25T06:54:21;14.18;;;6.32;;
55672;SDS011;41554;45.366;20.400;2024-01-25T06:56:47;12.63;;;8.55;;
55672;SDS011;41554;45.366;20.400;2024-01-25T06:59:14;8.35;;;6.70;;
55672;SDS011;41554;45.366;20.400;2024-01-25T07:01:40;13.98;;;7.72;;
55672;SDS011;41554;45.366;20.400;2024-01-25T07:04:06;11.35;;;7.60;;
55672;SDS011;41554;45.366;20.400;2024-01-25T07:06:32;11.52;;;7.43;;
55672;SDS011;41554;45.366;20.400;2024-01-25T07:08:58;21.17;;;8.77;;
55672;SDS011;41554;45.366;20.400;2024-01-25T07:11:24;13.70;;;8.00;;
55672;SDS011;41554;45.366;20.400;2024-01-25T07:13:51;12.95;;;7.72;;
55672;SDS011;41554;45.366;20.400;2024-01-25T07:16:17;12.63;;;7.35;;
55672;SDS011;41554;45.366;20.400;2024-01-25T07:18:44;15.98;;;7.53;;
55672;SDS011;41554;45.366;20.400;2024-01-25T07:21:10;20.38;;;8.07;;
55672;SDS011;41554;45.366;20.400;2024-01-25T07:23:36;9.15;;;6.90;;
55672;SDS011;41554;45.366;20.400;2024-01-25T07:26:02;9.35;;;6.80;;
55672;SDS011;41554;45.366;20.400;2024-01-25T07:28:28;11.55;;;7.97;;
55672;SDS011;41554;45.366;20.400;2024-01-25T07:30:54;14.00;;;7.10;;
55672;SDS011;41554;45.366;20.400;2024-01-25T07:33:20;15.02;;;7.90;;
55672;SDS011;41554;45.366;20.400;2024-01-25T07:35:47;11.20;;;6.70;;
55672;SDS011;41554;45.366;20.400;2024-01-25T07:38:13;14.02;;;8.32;;
55672;SDS011;41554;45.366;20.400;2024-01-25T07:40:40;11.93;;;6.50;;
55672;SDS011;41554;45.366;20.400;2024-01-25T07:43:06;7.53;;;5.35;;
55672;SDS011;41554;45.366;20.400;2024-01-25T07:45:32;13.02;;;6.05;;
55672;SDS011;41554;45.366;20.400;2024-01-25T07:47:58;8.68;;;5.60;;
55672;SDS011;41554;45.366;20.400;2024-01-25T07:50:24;9.43;;;6.18;;
55672;SDS011;41554;45.366;20.400;2024-01-25T07:52:50;11.85;;;6.18;;
55672;SDS011;41554;45.366;20.400;2024-01-25T07:55:17;11.35;;;6.13;;
55672;SDS011;41554;45.366;20.400;2024-01-25T07:57:43;10.55;;;7.22;;
55672;SDS011;41554;45.366;20.400;2024-01-25T08:00:09;8.38;;;7.18;;
55672;SDS011;41554;45.366;20.400;2024-01-25T08:02:35;12.77;;;6.78;;
55672;SDS011;41554;45.366;20.400;2024-01-25T08:05:04;13.50;;;6.20;;
55672;SDS011;41554;45.366;20.400;2024-01-25T08:07:31;12.40;;;6.15;;
55672;SDS011;41554;45.366;20.400;2024-01-25T08:09:58;9.88;;;5.20;;
55672;SDS011;41554;45.366;20.400;2024-01-25T08:12:24;12.55;;;6.60;;
55672;SDS011;41554;45.366;20.400;2024-01-25T08:14:50;8.18;;;6.00;;
55672;SDS011;41554;45.366;20.400;2024-01-25T08:17:17;14.93;;;7.60;;
55672;SDS011;41554;45.366;20.400;2024-01-25T08:19:43;9.20;;;6.07;;
55672;SDS011;41554;45.366;20.400;2024-01-25T08:22:09;10.68;;;6.30;;
55672;SDS011;41554;45.366;20.400;2024-01-25T08:24:35;10.65;;;7.20;;
55672;SDS011;41554;45.366;20.400;2024-01-25T08:27:02;13.30;;;7.75;;
55672;SDS011;41554;45.366;20.400;2024-01-25T08:29:28;12.75;;;8.25;;
55672;SDS011;41554;45.366;20.400;2024-01-25T08:31:54;14.95;;;7.05;;
55672;SDS011;41554;45.366;20.400;2024-01-25T08:34:20;13.18;;;7.13;;
55672;SDS011;41554;45.366;20.400;2024-01-25T08:36:46;13.90;;;7.65;;
55672;SDS011;41554;45.366;20.400;2024-01-25T08:39:12;13.13;;;8.32;;
55672;SDS011;41554;45.366;20.400;2024-01-25T08:41:39;15.38;;;7.82;;
55672;SDS011;41554;45.366;20.400;2024-01-25T08:44:07;11.48;;;7.90;;
55672;SDS011;41554;45.366;20.400;2024-01-25T08:46:33;14.00;;;8.93;;
55672;SDS011;41554;45.366;20.400;2024-01-25T08:48:59;12.07;;;7.80;;
55672;SDS011;41554;45.366;20.400;2024-01-25T08:51:25;15.18;;;9.05;;
55672;SDS011;41554;45.366;20.400;2024-01-25T08:53:51;15.10;;;8.40;;
55672;SDS011;41554;45.366;20.400;2024-01-25T08:56:17;14.52;;;8.88;;
55672;SDS011;41554;45.366;20.400;2024-01-25T08:58:43;12.35;;;8.43;;
55672;SDS011;41554;45.366;20.400;2024-01-25T09:01:10;11.25;;;7.28;;
55672;SDS011;41554;45.366;20.400;2024-01-25T09:03:36;12.27;;;8.07;;
55672;SDS011;41554;45.366;20.400;2024-01-25T09:06:03;14.18;;;7.65;;
55672;SDS011;41554;45.366;20.400;2024-01-25T09:08:31;16.33;;;8.25;;
55672;SDS011;41554;45.366;20.400;2024-01-25T09:10:57;18.33;;;8.57;;
55672;SDS011;41554;45.366;20.400;2024-01-25T09:13:24;18.10;;;9.18;;
55672;SDS011;41554;45.366;20.400;2024-01-25T09:15:50;14.63;;;8.65;;
55672;SDS011;41554;45.366;20.400;2024-01-25T09:18:16;17.65;;;10.05;;
55672;SDS011;41554;45.366;20.400;2024-01-25T09:20:42;11.18;;;8.27;;
55672;SDS011;41554;45.366;20.400;2024-01-25T09:23:13;15.73;;;8.48;;
55672;SDS011;41554;45.366;20.400;2024-01-25T09:25:40;17.92;;;10.57;;
55672;SDS011;41554;45.366;20.400;2024-01-25T09:28:06;13.90;;;9.48;;
55672;SDS011;41554;45.366;20.400;2024-01-25T09:30:33;11.25;;;5.80;;
55672;SDS011;41554;45.366;20.400;2024-01-25T09:32:59;9.18;;;5.88;;
55672;SDS011;41554;45.366;20.400;2024-01-25T09:35:25;21.48;;;8.70;;
55672;SDS011;41554;45.366;20.400;2024-01-25T09:37:51;11.20;;;6.93;;
55672;SDS011;41554;45.366;20.400;2024-01-25T09:40:18;8.13;;;6.88;;
55672;SDS011;41554;45.366;20.400;2024-01-25T09:42:46;10.82;;;5.57;;
55672;SDS011;41554;45.366;20.400;2024-01-25T09:45:18;15.98;;;6.47;;
55672;SDS011;41554;45.366;20.400;2024-01-25T09:47:45;14.60;;;7.63;;
55672;SDS011;41554;45.366;20.400;2024-01-25T09:50:12;10.30;;;6.97;;
55672;SDS011;41554;45.366;20.400;2024-01-25T09:52:38;9.15;;;7.07;;
55672;SDS011;41554;45.366;20.400;2024-01-25T09:55:05;17.23;;;8.85;;
55672;SDS011;41554;45.366;20.400;2024-01-25T09:57:32;14.70;;;8.82;;
55672;SDS011;41554;45.366;20.400;2024-01-25T10:00:02;36.53;;;20.42;;
55672;SDS011;41554;45.366;20.400;2024-01-25T10:02:28;32.85;;;18.58;;
55672;SDS011;41554;45.366;20.400;2024-01-25T10:04:54;41.97;;;18.80;;
55672;SDS011;41554;45.366;20.400;2024-01-25T10:07:39;71.22;;;42.67;;
55672;SDS011;41554;45.366;20.400;2024-01-25T10:10:06;49.05;;;28.75;;
55672;SDS011;41554;45.366;20.400;2024-01-25T10:12:32;37.38;;;20.02;;
55672;SDS011;41554;45.366;20.400;2024-01-25T10:14:58;19.58;;;12.60;;
55672;SDS011;41554;45.366;20.400;2024-01-25T10:17:25;19.75;;;12.05;;
55672;SDS011;41554;45.366;20.400;2024-01-25T10:19:51;20.48;;;11.10;;
55672;SDS011;41554;45.366;20.400;2024-01-25T10:22:17;23.30;;;14.80;;
55672;SDS011;41554;45.366;20.400;2024-01-25T10:24:44;23.58;;;14.18;;
55672;SDS011;41554;45.366;20.400;2024-01-25T10:27:10;19.35;;;14.05;;
55672;SDS011;41554;45.366;20.400;2024-01-25T10:29:37;20.27;;;11.85;;
55672;SDS011;41554;45.366;20.400;2024-01-25T10:32:03;26.25;;;18.15;;
55672;SDS011;41554;45.366;20.400;2024-01-25T10:34:30;23.08;;;14.73;;
55672;SDS011;41554;45.366;20.400;2024-01-25T10:36:56;21.40;;;9.90;;
55672;SDS011;41554;45.366;20.400;2024-01-25T10:39:23;17.77;;;11.48;;
55672;SDS011;41554;45.366;20.400;2024-01-25T10:41:50;10.20;;;8.05;;
55672;SDS011;41554;45.366;20.400;2024-01-25T10:44:17;15.82;;;9.93;;
55672;SDS011;41554;45.366;20.400;2024-01-25T10:46:46;17.33;;;11.50;;
55672;SDS011;41554;45.366;20.400;2024-01-25T10:49:13;14.25;;;10.82;;
55672;SDS011;41554;45.366;20.400;2024-01-25T10:51:39;18.33;;;10.65;;
55672;SDS011;41554;45.366;20.400;2024-01-25T10:54:09;20.15;;;12.77;;
55672;SDS011;41554;45.366;20.400;2024-01-25T10:56:36;24.98;;;13.07;;
55672;SDS011;41554;45.366;20.400;2024-01-25T10:59:02;26.35;;;13.45;;
55672;SDS011;41554;45.366;20.400;2024-01-25T11:01:28;26.63;;;14.73;;
55672;SDS011;41554;45.366;20.400;2024-01-25T11:03:55;14.20;;;9.98;;
55672;SDS011;41554;45.366;20.400;2024-01-25T11:06:22;19.13;;;10.40;;
55672;SDS011;41554;45.366;20.400;2024-01-25T11:08:48;20.30;;;9.20;;
55672;SDS011;41554;45.366;20.400;2024-01-25T11:11:14;8.52;;;6.05;;
55672;SDS011;41554;45.366;20.400;2024-01-25T11:13:41;10.10;;;7.47;;
55672;SDS011;41554;45.366;20.400;2024-01-25T11:16:27;9.35;;;5.47;;
55672;SDS011;41554;45.366;20.400;2024-01-25T11:18:55;8.82;;;5.82;;
55672;SDS011;41554;45.366;20.400;2024-01-25T11:21:27;8.73;;;4.72;;
55672;SDS011;41554;45.366;20.400;2024-01-25T11:26:19;5.63;;;3.97;;
55672;SDS011;41554;45.366;20.400;2024-01-25T11:28:49;8.63;;;4.15;;
55672;SDS011;41554;45.366;20.400;2024-01-25T11:31:16;6.80;;;3.08;;
55672;SDS011;41554;45.366;20.400;2024-01-25T11:33:43;3.20;;;2.50;;
55672;SDS011;41554;45.366;20.400;2024-01-25T11:36:10;5.05;;;2.83;;
55672;SDS011;41554;45.366;20.400;2024-01-25T11:38:36;4.32;;;2.47;;
55672;SDS011;41554;45.366;20.400;2024-01-25T11:41:02;8.60;;;2.60;;
55672;SDS011;41554;45.366;20.400;2024-01-25T11:43:28;2.42;;;1.65;;
55672;SDS011;41554;45.366;20.400;2024-01-25T11:45:54;4.90;;;3.25;;
55672;SDS011;41554;45.366;20.400;2024-01-25T11:48:20;5.43;;;3.60;;
55672;SDS011;41554;45.366;20.400;2024-01-25T11:50:46;8.20;;;3.38;;
55672;SDS011;41554;45.366;20.400;2024-01-25T11:53:13;5.60;;;2.58;;
55672;SDS011;41554;45.366;20.400;2024-01-25T11:55:39;5.35;;;3.58;;
55672;SDS011;41554;45.366;20.400;2024-01-25T11:58:05;2.85;;;2.20;;
55672;SDS011;41554;45.366;20.400;2024-01-25T12:00:32;10.30;;;4.93;;
55672;SDS011;41554;45.366;20.400;2024-01-25T12:02:58;6.20;;;3.28;;
55672;SDS011;41554;45.366;20.400;2024-01-25T12:05:24;8.40;;;4.03;;
55672;SDS011;41554;45.366;20.400;2024-01-25T12:07:51;8.98;;;4.22;;
55672;SDS011;41554;45.366;20.400;2024-01-25T12:10:17;5.35;;;3.28;;
55672;SDS011;41554;45.366;20.400;2024-01-25T12:12:43;3.97;;;2.85;;
55672;SDS011;41554;45.366;20.400;2024-01-25T12:15:09;5.15;;;2.65;;
55672;SDS011;41554;45.366;20.400;2024-01-25T12:17:36;11.88;;;3.15;;
55672;SDS011;41554;45.366;20.400;2024-01-25T12:20:04;7.03;;;2.72;;
55672;SDS011;41554;45.366;20.400;2024-01-25T12:22:35;8.18;;;3.72;;
55672;SDS011;41554;45.366;20.400;2024-01-25T12:25:01;6.55;;;2.85;;
55672;SDS011;41554;45.366;20.400;2024-01-25T12:27:28;3.53;;;2.97;;
55672;SDS011;41554;45.366;20.400;2024-01-25T12:29:55;4.47;;;3.03;;
55672;SDS011;41554;45.366;20.400;2024-01-25T12:32:22;7.22;;;3.60;;
55672;SDS011;41554;45.366;20.400;2024-01-25T12:34:58;6.10;;;3.08;;
55672;SDS011;41554;45.366;20.400;2024-01-25T12:37:25;6.22;;;3.30;;
55672;SDS011;41554;45.366;20.400;2024-01-25T12:39:52;5.93;;;3.58;;
55672;SDS011;41554;45.366;20.400;2024-01-25T12:42:18;6.90;;;3.85;;
55672;SDS011;41554;45.366;20.400;2024-01-25T12:44:44;3.95;;;2.95;;
55672;SDS011;41554;45.366;20.400;2024-01-25T12:47:11;15.30;;;5.13;;
55672;SDS011;41554;45.366;20.400;2024-01-25T12:49:41;10.77;;;5.40;;
55672;SDS011;41554;45.366;20.400;2024-01-25T12:52:08;5.15;;;3.70;;
55672;SDS011;41554;45.366;20.400;2024-01-25T12:54:34;11.82;;;3.40;;
55672;SDS011;41554;45.366;20.400;2024-01-25T12:57:00;6.00;;;3.53;;
55672;SDS011;41554;45.366;20.400;2024-01-25T12:59:27;7.03;;;3.92;;
55672;SDS011;41554;45.366;20.400;2024-01-25T13:01:53;12.65;;;3.85;;
55672;SDS011;41554;45.366;20.400;2024-01-25T13:04:19;3.83;;;2.78;;
55672;SDS011;41554;45.366;20.400;2024-01-25T13:06:46;4.25;;;2.92;;
55672;SDS011;41554;45.366;20.400;2024-01-25T13:09:13;6.05;;;2.72;;
55672;SDS011;41554;45.366;20.400;2024-01-25T13:11:40;9.95;;;3.40;;
55672;SDS011;41554;45.366;20.400;2024-01-25T13:14:06;6.13;;;3.45;;
55672;SDS011;41554;45.366;20.400;2024-01-25T13:16:33;11.65;;;3.75;;
55672;SDS011;41554;45.366;20.400;2024-01-25T13:18:59;4.50;;;2.67;;
55672;SDS011;41554;45.366;20.400;2024-01-25T13:21:25;5.47;;;3.45;;
55672;SDS011;41554;45.366;20.400;2024-01-25T13:23:51;5.57;;;3.00;;
55672;SDS011;41554;45.366;20.400;2024-01-25T13:26:17;5.05;;;3.25;;
55672;SDS011;41554;45.366;20.400;2024-01-25T13:28:43;8.55;;;4.88;;
55672;SDS011;41554;45.366;20.400;2024-01-25T13:31:09;11.15;;;6.40;;
55672;SDS011;41554;45.366;20.400;2024-01-25T13:33:35;15.93;;;6.15;;
55672;SDS011;41554;45.366;20.400;2024-01-25T13:36:01;13.10;;;6.28;;
55672;SDS011;41554;45.366;20.400;2024-01-25T13:38:29;6.68;;;4.43;;
55672;SDS011;41554;45.366;20.400;2024-01-25T13:40:55;7.20;;;4.07;;
55672;SDS011;41554;45.366;20.400;2024-01-25T13:43:22;8.48;;;2.88;;
55672;SDS011;41554;45.366;20.400;2024-01-25T13:45:48;8.68;;;3.63;;
55672;SDS011;41554;45.366;20.400;2024-01-25T13:48:14;10.50;;;4.03;;
55672;SDS011;41554;45.366;20.400;2024-01-25T13:50:40;6.93;;;4.25;;
55672;SDS011;41554;45.366;20.400;2024-01-25T13:53:06;8.35;;;4.75;;
55672;SDS011;41554;45.366;20.400;2024-01-25T13:55:32;7.90;;;4.45;;
55672;SDS011;41554;45.366;20.400;2024-01-25T13:57:58;14.93;;;7.57;;
55672;SDS011;41554;45.366;20.400;2024-01-25T14:00:25;15.85;;;7.20;;
55672;SDS011;41554;45.366;20.400;2024-01-25T14:02:52;13.90;;;6.43;;
55672;SDS011;41554;45.366;20.400;2024-01-25T14:05:18;12.10;;;5.60;;
55672;SDS011;41554;45.366;20.400;2024-01-25T14:07:44;6.80;;;3.38;;
55672;SDS011;41554;45.366;20.400;2024-01-25T14:10:10;9.55;;;4.68;;
55672;SDS011;41554;45.366;20.400;2024-01-25T14:12:36;5.80;;;4.30;;
55672;SDS011;41554;45.366;20.400;2024-01-25T14:15:03;11.65;;;5.65;;
55672;SDS011;41554;45.366;20.400;2024-01-25T14:17:29;17.90;;;9.07;;
55672;SDS011;41554;45.366;20.400;2024-01-25T14:19:55;17.15;;;10.52;;
55672;SDS011;41554;45.366;20.400;2024-01-25T14:22:21;27.75;;;12.70;;